Time;durP1;ratioP1;P1;durP2;ratioP2;P2;SDS_P1;SDS_P2;PMS_P1;PMS_P2;Temp;Humidity;BMP_temperature;BMP_pressure;BME280_temperature;BME280_humidity;BME280_pressure;Samples;Min_cycle;Max_cycle;Signal;HPM_P1;HPM_P2
2021/06/19 00:00:27;;;;;;;3.47;1.70;;;22.40;91.00;;;;;;5033182;28;20029;-69
2021/06/19 00:02:53;;;;;;;1.77;1.10;;;22.40;90.90;;;;;;5030664;28;20030;-69
2021/06/19 00:05:19;;;;;;;1.45;1.20;;;22.40;90.80;;;;;;5030770;28;20109;-69
2021/06/19 00:07:44;;;;;;;2.28;1.08;;;22.40;90.70;;;;;;5036641;28;20014;-69
2021/06/19 00:10:13;;;;;;;1.95;1.17;;;22.40;90.60;;;;;;5033789;28;20044;-69
2021/06/19 00:12:39;;;;;;;1.42;0.95;;;22.40;90.50;;;;;;5040178;28;20055;-69
2021/06/19 00:15:07;;;;;;;1.77;1.00;;;22.40;90.40;;;;;;5039235;28;20481;-69
2021/06/19 00:17:33;;;;;;;1.30;0.82;;;22.40;90.40;;;;;;5039527;28;20048;-69
2021/06/19 00:19:59;;;;;;;1.55;0.80;;;22.30;90.40;;;;;;5039277;28;20388;-69
2021/06/19 00:22:24;;;;;;;3.95;0.90;;;22.30;90.30;;;;;;5036872;28;20026;-69
2021/06/19 00:24:50;;;;;;;3.08;1.13;;;22.30;90.30;;;;;;5036109;28;20071;-69
2021/06/19 00:27:16;;;;;;;1.58;0.85;;;22.30;90.30;;;;;;5035955;28;20088;-69
2021/06/19 00:29:41;;;;;;;1.02;0.75;;;22.30;90.30;;;;;;5035640;28;20461;-69
2021/06/19 00:32:07;;;;;;;2.03;0.80;;;22.20;90.30;;;;;;5037754;28;20033;-69
2021/06/19 00:34:32;;;;;;;1.45;0.90;;;22.20;90.30;;;;;;5037444;28;20430;-69
2021/06/19 00:36:58;;;;;;;1.55;1.00;;;22.20;90.30;;;;;;5037707;28;20060;-69
2021/06/19 00:39:23;;;;;;;7.00;1.00;;;22.20;90.40;;;;;;5035360;28;20497;-69
2021/06/19 00:41:49;;;;;;;2.35;1.00;;;22.20;90.40;;;;;;5035820;28;20025;-69
2021/06/19 00:44:17;;;;;;;1.10;0.80;;;22.20;90.40;;;;;;5043809;28;20025;-69
2021/06/19 00:46:43;;;;;;;1.00;0.60;;;22.20;90.30;;;;;;5035417;28;20033;-69
2021/06/19 00:49:08;;;;;;;1.10;0.80;;;22.20;90.40;;;;;;5036173;28;20017;-69
2021/06/19 00:51:34;;;;;;;1.92;0.88;;;22.10;90.40;;;;;;5037220;28;20036;-69
2021/06/19 00:53:59;;;;;;;1.48;0.95;;;22.10;90.50;;;;;;5037313;28;20115;-69
2021/06/19 00:56:26;;;;;;;1.35;0.75;;;22.10;90.50;;;;;;5036279;28;20036;-69
2021/06/19 00:58:52;;;;;;;1.75;0.90;;;22.10;90.50;;;;;;5035449;28;20021;-69
2021/06/19 01:01:18;;;;;;;1.02;0.90;;;22.00;90.50;;;;;;5033599;28;20025;-69
2021/06/19 01:03:44;;;;;;;1.90;1.00;;;22.00;90.50;;;;;;5034726;28;20112;-69
2021/06/19 01:06:09;;;;;;;1.90;1.30;;;22.00;90.60;;;;;;5038733;28;20025;-69
2021/06/19 01:08:35;;;;;;;2.00;1.05;;;21.90;90.70;;;;;;5037001;28;20095;-69
2021/06/19 01:11:01;;;;;;;1.38;1.17;;;21.90;90.90;;;;;;5037074;28;20017;-69
2021/06/19 01:13:26;;;;;;;3.92;1.20;;;21.90;91.00;;;;;;5034962;28;20121;-68
2021/06/19 01:15:52;;;;;;;1.70;0.85;;;21.80;91.20;;;;;;5035630;28;20036;-69
2021/06/19 01:18:17;;;;;;;1.80;1.30;;;21.80;91.20;;;;;;5040517;28;20515;-69
2021/06/19 01:20:43;;;;;;;3.17;1.10;;;21.80;91.30;;;;;;5036229;28;20056;-69
2021/06/19 01:23:08;;;;;;;2.60;1.00;;;21.70;91.40;;;;;;5035379;28;20018;-69
2021/06/19 01:25:36;;;;;;;3.22;1.10;;;21.70;91.60;;;;;;5035204;28;20052;-69
2021/06/19 01:28:05;;;;;;;2.67;0.90;;;21.60;91.70;;;;;;5037714;28;20028;-68
2021/06/19 01:30:31;;;;;;;0.90;0.80;;;21.60;91.80;;;;;;5033043;28;20022;-69
2021/06/19 01:32:56;;;;;;;1.52;1.30;;;21.60;91.80;;;;;;5036809;28;20095;-69
2021/06/19 01:35:23;;;;;;;2.72;1.20;;;21.60;91.90;;;;;;5038378;28;20025;-69
2021/06/19 01:37:51;;;;;;;2.97;1.10;;;21.60;91.90;;;;;;5035715;28;20026;-69
2021/06/19 01:40:22;;;;;;;1.30;1.20;;;21.60;92.00;;;;;;5035473;28;20021;-69
2021/06/19 01:42:50;;;;;;;1.30;1.20;;;21.60;92.10;;;;;;5033563;28;20052;-69
2021/06/19 01:45:18;;;;;;;2.38;1.40;;;21.50;92.20;;;;;;5035099;28;20086;-69
2021/06/19 01:47:45;;;;;;;1.83;1.20;;;21.50;92.30;;;;;;5036513;28;20022;-69
2021/06/19 01:50:13;;;;;;;2.10;1.20;;;21.50;92.50;;;;;;5036360;28;20096;-68
2021/06/19 01:52:39;;;;;;;1.90;1.50;;;21.50;92.50;;;;;;5037626;28;20025;-69
2021/06/19 01:55:06;;;;;;;3.72;1.50;;;21.40;92.70;;;;;;5035494;28;20477;-69
2021/06/19 01:57:32;;;;;;;1.55;1.30;;;21.40;92.80;;;;;;5035061;28;20032;-69
2021/06/19 02:00:15;;;;;;;1.80;1.00;;;21.40;92.80;;;;;;5037440;28;20025;-69
2021/06/19 02:02:41;;;;;;;5.05;1.50;;;21.40;92.80;;;;;;5034705;28;20037;-69
2021/06/19 02:05:09;;;;;;;2.88;1.75;;;21.40;92.80;;;;;;5033561;28;20413;-69
2021/06/19 02:07:44;;;;;;;3.20;1.60;;;21.40;92.90;;;;;;5038447;28;20147;-68
2021/06/19 02:10:10;;;;;;;1.52;1.35;;;21.40;92.90;;;;;;5035577;28;20093;-68
2021/06/19 02:12:36;;;;;;;1.90;1.70;;;21.40;93.00;;;;;;5036733;28;20033;-69
2021/06/19 02:15:03;;;;;;;2.60;1.40;;;21.40;93.00;;;;;;5034513;28;20021;-69
2021/06/19 02:17:28;;;;;;;3.15;1.27;;;21.40;93.00;;;;;;5036444;28;20037;-69
2021/06/19 02:19:54;;;;;;;4.10;1.50;;;21.40;93.10;;;;;;5037917;28;20108;-69
2021/06/19 02:22:19;;;;;;;3.25;1.90;;;21.40;93.10;;;;;;5037851;28;20508;-69
2021/06/19 02:24:45;;;;;;;2.72;1.45;;;21.30;93.20;;;;;;5036193;28;20083;-68
2021/06/19 02:27:15;;;;;;;1.67;1.50;;;21.40;93.30;;;;;;5038137;28;20017;-68
2021/06/19 02:29:41;;;;;;;2.40;1.42;;;21.40;93.20;;;;;;5032367;28;20030;-68
2021/06/19 02:32:08;;;;;;;3.40;1.90;;;21.40;93.30;;;;;;5033288;28;20025;-68
2021/06/19 02:34:35;;;;;;;1.77;1.58;;;21.40;93.30;;;;;;5034590;28;20104;-69
2021/06/19 02:37:01;;;;;;;3.80;1.55;;;21.40;93.30;;;;;;5036883;28;20427;-69
2021/06/19 02:39:27;;;;;;;2.75;2.10;;;21.40;93.40;;;;;;5033202;28;20547;-68
2021/06/19 02:41:52;;;;;;;3.00;2.33;;;21.40;93.50;;;;;;5035214;28;20033;-68
2021/06/19 02:44:18;;;;;;;2.33;2.13;;;21.30;93.70;;;;;;5032348;28;20464;-69
2021/06/19 02:46:43;;;;;;;3.03;1.90;;;21.30;93.90;;;;;;5033247;28;20025;-68
2021/06/19 02:49:09;;;;;;;6.75;2.33;;;21.30;93.90;;;;;;5031569;28;20489;-69
2021/06/19 02:51:34;;;;;;;1.65;1.50;;;21.30;94.00;;;;;;5035016;28;20505;-69
2021/06/19 02:54:00;;;;;;;2.85;2.42;;;21.30;94.10;;;;;;5037575;28;20092;-68
2021/06/19 02:56:25;;;;;;;3.05;2.38;;;21.30;94.20;;;;;;5034154;28;20018;-68
2021/06/19 02:58:51;;;;;;;2.05;1.70;;;21.30;94.30;;;;;;5034959;28;20022;-68
2021/06/19 03:01:16;;;;;;;2.95;1.92;;;21.20;94.30;;;;;;5033514;28;20028;-69
2021/06/19 03:03:42;;;;;;;2.97;1.80;;;21.20;94.30;;;;;;5032857;28;20026;-68
2021/06/19 03:06:07;;;;;;;2.15;1.95;;;21.20;94.40;;;;;;5032507;28;20018;-69
2021/06/19 03:08:33;;;;;;;3.75;2.58;;;21.20;94.50;;;;;;5058961;28;20445;-68
2021/06/19 03:10:59;;;;;;;2.63;1.90;;;21.20;94.60;;;;;;5035330;28;20162;-69
2021/06/19 03:13:24;;;;;;;4.30;2.63;;;21.20;94.70;;;;;;5034121;28;20052;-68
2021/06/19 03:15:50;;;;;;;2.67;2.20;;;21.20;95.00;;;;;;5033437;28;20398;-69
2021/06/19 03:18:16;;;;;;;3.13;2.70;;;21.20;95.10;;;;;;5039624;28;20056;-68
2021/06/19 03:20:41;;;;;;;3.38;2.30;;;21.10;95.10;;;;;;5039906;28;20112;-69
2021/06/19 03:23:07;;;;;;;2.10;1.85;;;21.10;95.10;;;;;;5033731;28;20084;-69
2021/06/19 03:25:35;;;;;;;3.05;2.75;;;21.10;95.20;;;;;;5033340;28;20025;-69
2021/06/19 03:28:03;;;;;;;4.43;2.67;;;21.10;95.30;;;;;;5033268;28;20101;-69
2021/06/19 03:30:30;;;;;;;2.10;1.65;;;21.10;95.50;;;;;;5032442;28;20030;-69
2021/06/19 03:32:57;;;;;;;2.90;2.58;;;21.00;95.60;;;;;;5034350;28;20022;-69
2021/06/19 03:35:23;;;;;;;2.30;2.10;;;21.00;95.70;;;;;;5040082;28;20021;-68
2021/06/19 03:37:49;;;;;;;2.95;2.65;;;20.90;95.80;;;;;;5032668;28;20045;-69
2021/06/19 03:40:16;;;;;;;3.45;2.60;;;20.90;95.90;;;;;;5034110;28;20023;-68
2021/06/19 03:42:42;;;;;;;3.42;3.10;;;21.00;96.10;;;;;;5033163;28;20030;-68
2021/06/19 03:45:09;;;;;;;3.08;2.65;;;20.90;96.30;;;;;;5035010;28;20017;-69
2021/06/19 03:47:35;;;;;;;4.70;3.08;;;20.90;96.50;;;;;;5041793;28;20072;-69
2021/06/19 03:50:01;;;;;;;3.53;2.63;;;20.90;96.70;;;;;;5034906;28;20492;-69
2021/06/19 03:52:26;;;;;;;3.55;2.22;;;20.90;96.80;;;;;;5040775;28;20033;-69
2021/06/19 03:54:52;;;;;;;4.40;3.10;;;20.90;97.00;;;;;;5036630;28;20064;-69
2021/06/19 03:57:28;;;;;;;4.28;3.15;;;20.90;96.70;;;;;;5039046;28;20036;-69
2021/06/19 03:59:54;;;;;;;3.95;3.15;;;20.90;96.70;;;;;;5036932;28;20393;-69
2021/06/19 04:02:20;;;;;;;3.55;3.25;;;20.90;96.90;;;;;;5036082;28;20469;-69
2021/06/19 04:04:46;;;;;;;3.47;3.17;;;20.80;97.00;;;;;;5036125;28;20471;-69
2021/06/19 04:07:12;;;;;;;3.60;2.60;;;20.80;97.20;;;;;;5035549;28;20018;-69
2021/06/19 04:09:38;;;;;;;3.20;2.90;;;20.70;97.30;;;;;;5039804;28;20024;-69
2021/06/19 04:12:05;;;;;;;4.55;3.15;;;20.70;97.30;;;;;;5036689;28;20102;-69
2021/06/19 04:14:30;;;;;;;3.50;3.15;;;20.70;97.30;;;;;;5038989;28;20458;-68
2021/06/19 04:16:56;;;;;;;3.28;3.00;;;20.70;97.40;;;;;;5040567;28;20109;-68
2021/06/19 04:19:21;;;;;;;6.43;4.13;;;20.60;97.40;;;;;;5038120;28;20044;-69
2021/06/19 04:21:47;;;;;;;4.03;3.63;;;20.60;97.50;;;;;;5039223;28;20043;-69
2021/06/19 04:24:13;;;;;;;4.03;3.65;;;20.60;97.60;;;;;;5036715;28;20049;-69
2021/06/19 04:26:39;;;;;;;7.30;3.80;;;20.60;97.70;;;;;;5037470;28;20108;-68
2021/06/19 04:29:04;;;;;;;4.65;4.25;;;20.60;97.80;;;;;;5035870;28;20422;-69
2021/06/19 04:31:31;;;;;;;5.15;3.33;;;20.70;97.90;;;;;;5035715;28;20025;-69
2021/06/19 04:33:58;;;;;;;4.30;3.90;;;20.60;97.80;;;;;;5037862;28;20424;-69
2021/06/19 04:36:24;;;;;;;3.63;3.15;;;20.60;97.90;;;;;;5036243;28;20021;-69
2021/06/19 04:38:49;;;;;;;3.97;3.58;;;20.70;98.00;;;;;;5038788;28;20052;-69
2021/06/19 04:42:16;;;;;;;4.20;3.83;;;20.70;98.00;;;;;;5036658;28;20500;-68
2021/06/19 04:44:26;;;;;;;3.97;3.58;;;20.70;98.00;;;;;;5034549;28;20052;-69
2021/06/19 04:46:53;;;;;;;5.47;2.72;;;20.60;98.10;;;;;;5035602;28;20040;-69
2021/06/19 04:49:19;;;;;;;3.35;3.05;;;20.70;98.10;;;;;;5034800;28;20025;-69
2021/06/19 04:51:45;;;;;;;3.28;2.97;;;20.80;98.00;;;;;;5037537;28;20029;-69
2021/06/19 04:54:12;;;;;;;5.68;4.25;;;20.80;97.90;;;;;;5038918;28;20044;-69
2021/06/19 04:56:39;;;;;;;6.15;4.25;;;20.90;97.80;;;;;;5035882;28;20052;-69
2021/06/19 04:59:05;;;;;;;4.63;3.92;;;20.80;97.70;;;;;;5036083;28;20029;-69
2021/06/19 05:01:31;;;;;;;6.22;4.97;;;20.80;97.60;;;;;;5035097;28;20017;-69
2021/06/19 05:03:56;;;;;;;6.13;4.50;;;20.80;97.50;;;;;;5050683;28;20025;-69
2021/06/19 05:06:22;;;;;;;5.03;4.53;;;20.80;97.60;;;;;;5050011;28;20491;-68
2021/06/19 05:08:48;;;;;;;5.47;4.70;;;20.80;97.50;;;;;;5035071;28;20563;-69
2021/06/19 05:11:13;;;;;;;4.30;3.90;;;20.80;97.40;;;;;;5035026;28;20021;-69
2021/06/19 05:13:39;;;;;;;4.68;4.28;;;20.90;97.30;;;;;;5035106;28;20034;-69
2021/06/19 05:16:04;;;;;;;6.25;3.95;;;20.80;97.00;;;;;;5037251;28;20033;-69
2021/06/19 05:18:31;;;;;;;5.40;4.90;;;20.90;96.90;;;;;;5054797;28;20056;-69
2021/06/19 05:20:56;;;;;;;5.22;4.70;;;20.90;97.00;;;;;;5053669;28;20063;-69
2021/06/19 05:23:22;;;;;;;6.45;4.28;;;20.90;97.00;;;;;;5054681;28;20068;-68
2021/06/19 05:25:48;;;;;;;5.07;4.45;;;20.90;96.70;;;;;;5053446;28;20075;-69
2021/06/19 05:28:13;;;;;;;4.95;4.35;;;20.90;96.50;;;;;;5054811;28;20039;-68
2021/06/19 05:30:39;;;;;;;5.35;4.40;;;20.90;96.40;;;;;;5054839;28;20017;-68
2021/06/19 05:33:06;;;;;;;4.47;4.07;;;20.90;96.30;;;;;;5053590;28;20024;-69
2021/06/19 05:35:31;;;;;;;4.05;3.60;;;21.00;96.20;;;;;;5054718;28;20036;-69
2021/06/19 05:37:57;;;;;;;4.85;4.45;;;21.00;96.20;;;;;;5054189;28;20029;-69
2021/06/19 05:40:22;;;;;;;4.65;4.25;;;21.00;96.00;;;;;;5054073;28;20029;-69
2021/06/19 05:42:48;;;;;;;6.45;5.20;;;21.00;95.80;;;;;;5053098;28;20495;-68
2021/06/19 05:45:14;;;;;;;4.80;4.13;;;21.00;95.70;;;;;;5054672;28;20392;-68
2021/06/19 05:47:39;;;;;;;4.60;4.20;;;21.00;95.70;;;;;;5059990;28;20519;-68
2021/06/19 05:50:06;;;;;;;5.88;4.55;;;21.00;95.60;;;;;;5064018;28;20479;-68
2021/06/19 05:52:32;;;;;;;5.55;4.57;;;21.00;95.40;;;;;;5074257;28;20541;-68
2021/06/19 05:54:57;;;;;;;5.25;4.85;;;21.00;95.20;;;;;;5074186;28;20025;-68
2021/06/19 05:57:23;;;;;;;5.57;4.25;;;21.00;95.20;;;;;;5074277;28;20388;-68
2021/06/19 05:59:48;;;;;;;8.20;6.13;;;21.00;95.20;;;;;;5074159;28;20028;-68
2021/06/19 06:02:14;;;;;;;13.60;10.65;;;21.10;95.30;;;;;;5072802;28;20138;-68
2021/06/19 06:04:39;;;;;;;12.88;10.95;;;21.10;95.20;;;;;;5072829;28;20028;-68
2021/06/19 06:07:05;;;;;;;13.98;12.35;;;21.10;95.20;;;;;;5072606;28;20070;-68
2021/06/19 06:09:31;;;;;;;15.25;12.30;;;21.10;95.20;;;;;;5065543;28;20025;-68
2021/06/19 06:11:57;;;;;;;13.45;9.93;;;21.10;95.10;;;;;;5064458;28;20108;-68
2021/06/19 06:14:23;;;;;;;11.30;10.05;;;21.10;95.00;;;;;;5063340;28;20095;-68
2021/06/19 06:16:48;;;;;;;14.75;12.57;;;21.20;95.00;;;;;;5062334;28;20036;-68
2021/06/19 06:19:16;;;;;;;15.70;11.85;;;21.20;94.90;;;;;;5060864;28;20036;-68
2021/06/19 06:21:42;;;;;;;16.20;13.88;;;21.30;94.90;;;;;;5073505;28;20036;-68
2021/06/19 06:24:07;;;;;;;18.08;14.40;;;21.30;94.70;;;;;;5072477;28;20021;-68
2021/06/19 06:26:33;;;;;;;14.15;12.75;;;21.40;94.70;;;;;;5072475;28;20021;-68
2021/06/19 06:28:58;;;;;;;15.50;11.85;;;21.30;94.40;;;;;;5073684;28;20028;-68
2021/06/19 06:31:24;;;;;;;12.90;10.88;;;21.30;94.30;;;;;;5073616;28;20021;-68
2021/06/19 06:33:50;;;;;;;16.52;12.20;;;21.30;94.20;;;;;;5073489;28;20035;-68
2021/06/19 06:36:15;;;;;;;14.27;11.70;;;21.40;94.40;;;;;;5073299;28;20078;-68
2021/06/19 06:38:41;;;;;;;15.15;12.38;;;21.50;93.90;;;;;;5073449;28;20126;-68
2021/06/19 06:41:06;;;;;;;15.32;12.75;;;21.50;93.60;;;;;;5073357;28;20032;-68
2021/06/19 06:43:32;;;;;;;17.13;14.60;;;21.50;93.30;;;;;;5073320;28;20033;-68
2021/06/19 06:45:57;;;;;;;14.85;13.25;;;21.50;93.10;;;;;;5072131;28;20027;-68
2021/06/19 06:48:24;;;;;;;16.83;13.40;;;21.50;92.90;;;;;;5073403;28;20025;-68
2021/06/19 06:50:50;;;;;;;15.65;12.75;;;21.60;92.90;;;;;;5071829;28;20045;-68
2021/06/19 06:53:16;;;;;;;18.27;13.85;;;21.50;92.70;;;;;;5072135;28;20117;-68
2021/06/19 06:55:41;;;;;;;14.90;12.27;;;21.60;92.60;;;;;;5071784;28;20527;-68
2021/06/19 06:58:07;;;;;;;13.43;11.52;;;21.60;92.60;;;;;;5063704;28;20032;-68
2021/06/19 07:00:32;;;;;;;14.85;12.18;;;21.60;92.80;;;;;;5063649;28;20040;-68
2021/06/19 07:02:58;;;;;;;12.88;10.60;;;21.70;92.50;;;;;;5055588;28;20039;-68
2021/06/19 07:05:24;;;;;;;13.95;12.20;;;21.60;92.40;;;;;;5052922;28;20045;-68
2021/06/19 07:07:49;;;;;;;12.10;10.82;;;21.70;92.20;;;;;;5052915;28;20028;-68
2021/06/19 07:10:15;;;;;;;16.52;12.82;;;21.70;92.10;;;;;;5052698;28;20025;-68
2021/06/19 07:12:42;;;;;;;15.00;11.13;;;21.70;92.00;;;;;;5052956;28;20504;-68
2021/06/19 07:15:10;;;;;;;11.80;10.35;;;21.80;91.90;;;;;;5052918;28;20033;-68
2021/06/19 07:17:36;;;;;;;10.00;8.98;;;21.80;91.80;;;;;;5052548;28;20025;-68
2021/06/19 07:20:03;;;;;;;12.25;9.93;;;21.80;91.80;;;;;;5052547;28;20492;-68
2021/06/19 07:22:28;;;;;;;10.85;8.77;;;21.90;91.60;;;;;;5051416;28;20036;-68
2021/06/19 07:24:54;;;;;;;12.07;10.30;;;21.90;91.50;;;;;;5052965;28;20025;-68
2021/06/19 07:27:19;;;;;;;11.85;10.35;;;21.90;91.40;;;;;;5051576;28;20025;-68
2021/06/19 07:29:45;;;;;;;12.75;10.63;;;22.00;91.30;;;;;;5052785;28;20029;-68
2021/06/19 07:32:10;;;;;;;12.27;10.40;;;22.00;91.30;;;;;;5052847;28;20032;-69
2021/06/19 07:34:36;;;;;;;12.00;10.38;;;22.10;91.30;;;;;;5052649;28;20048;-69
2021/06/19 07:37:02;;;;;;;15.23;12.52;;;22.20;91.20;;;;;;5051500;28;20025;-68
2021/06/19 07:39:27;;;;;;;15.27;12.45;;;22.20;91.20;;;;;;5052660;28;20104;-69
2021/06/19 07:41:53;;;;;;;15.48;13.27;;;22.30;91.10;;;;;;5052688;28;20040;-69
2021/06/19 07:44:18;;;;;;;13.90;11.60;;;22.30;90.90;;;;;;5052666;28;20420;-69
2021/06/19 07:46:47;;;;;;;12.52;11.32;;;22.30;90.80;;;;;;5052415;28;20017;-69
2021/06/19 07:49:13;;;;;;;13.52;11.23;;;22.40;90.60;;;;;;5052547;28;20013;-69
2021/06/19 07:51:39;;;;;;;12.07;10.88;;;22.40;90.50;;;;;;5052565;28;20096;-69
2021/06/19 07:54:04;;;;;;;10.60;9.20;;;22.40;90.20;;;;;;5052652;28;20024;-69
2021/06/19 07:56:30;;;;;;;10.52;9.50;;;22.50;90.10;;;;;;5051271;28;20026;-68
2021/06/19 07:58:55;;;;;;;10.98;9.57;;;22.50;90.00;;;;;;5052377;28;20440;-69
2021/06/19 08:01:21;;;;;;;9.55;8.65;;;22.50;89.90;;;;;;5051265;28;20021;-70
2021/06/19 08:03:47;;;;;;;8.95;8.10;;;22.60;89.70;;;;;;5046872;28;20059;-68
2021/06/19 08:06:12;;;;;;;10.10;9.10;;;22.60;89.40;;;;;;5050980;28;20052;-69
2021/06/19 08:08:38;;;;;;;8.10;7.30;;;22.70;89.20;;;;;;5052395;28;20075;-68
2021/06/19 08:11:03;;;;;;;8.07;7.22;;;22.70;89.10;;;;;;5052383;28;20374;-69
2021/06/19 08:13:29;;;;;;;10.48;9.38;;;22.80;89.20;;;;;;5051963;28;20381;-69
2021/06/19 08:15:56;;;;;;;8.88;8.00;;;22.80;89.10;;;;;;5052169;28;20100;-69
2021/06/19 08:18:22;;;;;;;9.65;8.25;;;22.80;89.00;;;;;;5050728;28;20143;-69
2021/06/19 08:20:48;;;;;;;7.43;6.72;;;22.70;88.70;;;;;;5052210;28;20100;-69
2021/06/19 08:23:13;;;;;;;10.30;9.30;;;22.70;89.00;;;;;;5052163;28;20374;-69
2021/06/19 08:25:39;;;;;;;9.65;8.75;;;22.70;88.90;;;;;;5050751;28;20017;-69
2021/06/19 08:28:05;;;;;;;10.32;9.35;;;22.60;88.90;;;;;;5052214;28;20024;-68
2021/06/19 08:30:31;;;;;;;9.55;8.63;;;22.70;88.80;;;;;;5052021;28;20033;-68
2021/06/19 08:32:56;;;;;;;8.27;7.47;;;22.80;88.70;;;;;;5053276;28;20026;-69
2021/06/19 08:35:22;;;;;;;7.68;6.97;;;22.80;88.50;;;;;;5055765;28;20100;-69
2021/06/19 08:37:47;;;;;;;8.60;7.68;;;22.80;88.60;;;;;;5055551;28;20061;-69
2021/06/19 08:40:13;;;;;;;7.32;6.55;;;22.90;88.30;;;;;;5055716;28;20040;-69
2021/06/19 08:42:39;;;;;;;8.82;7.80;;;23.00;88.10;;;;;;5055488;28;20071;-69
2021/06/19 08:45:06;;;;;;;8.75;7.95;;;23.10;87.50;;;;;;5055499;28;20025;-69
2021/06/19 08:47:36;;;;;;;11.00;8.25;;;23.20;87.40;;;;;;5053915;28;20025;-69
2021/06/19 08:50:11;;;;;;;9.43;7.97;;;23.30;87.00;;;;;;5055513;28;20052;-69
2021/06/19 08:52:38;;;;;;;9.30;7.97;;;23.30;86.60;;;;;;5055367;28;20025;-69
2021/06/19 08:55:08;;;;;;;12.45;8.80;;;23.30;86.50;;;;;;5054141;28;20116;-69
2021/06/19 08:57:33;;;;;;;13.55;9.15;;;23.30;86.60;;;;;;5055527;28;20025;-69
2021/06/19 08:59:59;;;;;;;11.68;9.57;;;23.20;86.60;;;;;;5055052;28;20517;-69
2021/06/19 09:02:24;;;;;;;13.63;9.95;;;23.10;86.80;;;;;;5055191;28;20111;-69
2021/06/19 09:04:52;;;;;;;15.05;10.13;;;23.10;86.70;;;;;;5061136;28;20021;-69
2021/06/19 09:07:38;;;;;;;11.15;9.70;;;22.90;86.70;;;;;;5054868;28;20029;-69
2021/06/19 09:10:25;;;;;;;12.43;10.40;;;22.90;86.70;;;;;;5050919;28;20017;-69
2021/06/19 09:12:54;;;;;;;12.63;11.27;;;22.80;86.70;;;;;;5053099;28;20045;-69
2021/06/19 09:15:19;;;;;;;12.70;10.40;;;22.70;86.80;;;;;;5054495;28;20449;-69
2021/06/19 09:18:01;;;;;;;11.70;9.00;;;22.70;87.00;;;;;;5054376;28;20065;-74
2021/06/19 09:20:49;;;;;;;9.25;7.93;;;22.80;87.00;;;;;;5052257;28;20025;-69
2021/06/19 09:23:32;;;;;;;8.45;7.43;;;22.90;87.10;;;;;;5053322;28;20021;-69
2021/06/19 09:26:12;;;;;;;11.80;8.82;;;22.90;86.90;;;;;;5052551;28;20025;-68
2021/06/19 09:28:56;;;;;;;10.23;8.48;;;23.10;86.50;;;;;;5053733;28;20024;-69
2021/06/19 09:31:40;;;;;;;10.63;8.27;;;23.10;86.00;;;;;;5052804;28;20021;-69
2021/06/19 09:34:18;;;;;;;12.35;9.15;;;23.20;85.70;;;;;;5054815;28;20397;-69
2021/06/19 09:36:58;;;;;;;12.00;9.50;;;23.30;85.40;;;;;;5054645;28;20029;-69
2021/06/19 09:39:30;;;;;;;14.38;11.35;;;23.40;84.60;;;;;;5053265;28;20025;-68
2021/06/19 09:41:58;;;;;;;13.98;10.98;;;23.50;84.20;;;;;;5054771;28;20485;-68
2021/06/19 09:44:41;;;;;;;12.30;10.55;;;23.60;84.20;;;;;;5052953;28;20021;-69
2021/06/19 09:47:09;;;;;;;12.77;10.60;;;23.70;84.30;;;;;;5053302;28;20029;-69
2021/06/19 09:49:38;;;;;;;13.35;11.57;;;23.70;84.90;;;;;;5061256;28;20465;-69
2021/06/19 09:52:04;;;;;;;14.43;11.63;;;23.90;83.80;;;;;;5062763;28;20370;-69
2021/06/19 09:54:39;;;;;;;10.57;9.45;;;24.10;83.10;;;;;;5055883;28;20480;-69
2021/06/19 09:57:07;;;;;;;13.50;11.02;;;24.20;82.60;;;;;;5053525;28;20078;-69
2021/06/19 09:59:37;;;;;;;13.18;10.93;;;24.30;82.00;;;;;;5054712;28;20017;-69
2021/06/19 10:02:19;;;;;;;12.85;10.70;;;24.40;81.90;;;;;;5056922;28;20142;-69
2021/06/19 10:04:50;;;;;;;12.45;11.15;;;24.60;81.40;;;;;;5056501;28;20099;-69
2021/06/19 10:07:17;;;;;;;11.63;9.93;;;24.70;80.80;;;;;;5052652;28;20377;-69
2021/06/19 10:09:47;;;;;;;11.52;10.40;;;24.70;80.60;;;;;;5053581;28;20017;-69
2021/06/19 10:12:13;;;;;;;14.90;12.32;;;24.80;80.40;;;;;;5051108;28;20024;-69
2021/06/19 10:14:39;;;;;;;11.00;9.93;;;24.90;80.30;;;;;;5053457;28;20032;-69
2021/06/19 10:17:05;;;;;;;13.73;12.32;;;24.90;79.90;;;;;;5053179;28;20021;-69
2021/06/19 10:19:32;;;;;;;12.95;11.35;;;24.90;79.50;;;;;;5053743;28;20049;-69
2021/06/19 10:21:57;;;;;;;14.25;11.40;;;24.90;79.20;;;;;;5058835;28;20121;-69
2021/06/19 10:24:25;;;;;;;13.52;12.13;;;24.90;79.30;;;;;;5060911;28;20460;-69
2021/06/19 10:26:52;;;;;;;13.25;11.43;;;24.90;78.90;;;;;;5062019;28;20020;-69
2021/06/19 10:29:25;;;;;;;13.68;12.25;;;24.90;78.90;;;;;;5062981;28;20488;-69
2021/06/19 10:31:51;;;;;;;12.88;11.40;;;24.80;78.90;;;;;;5059993;28;20033;-69
2021/06/19 10:34:17;;;;;;;11.75;10.52;;;24.80;78.90;;;;;;5057009;28;20027;-69
2021/06/19 10:36:43;;;;;;;13.65;12.30;;;24.90;78.90;;;;;;5061485;28;20461;-69
2021/06/19 10:39:08;;;;;;;11.88;10.70;;;24.90;78.80;;;;;;5062565;28;20070;-69
2021/06/19 10:41:51;;;;;;;13.30;11.48;;;24.80;78.70;;;;;;5063950;28;20021;-69
2021/06/19 10:44:57;;;;;;;13.30;11.48;;;24.70;78.70;;;;;;5062554;28;20370;-69
2021/06/19 10:47:28;;;;;;;15.90;14.25;;;24.70;78.90;;;;;;5060618;28;20013;-69
2021/06/19 10:49:54;;;;;;;14.68;13.27;;;24.60;78.90;;;;;;5053854;28;20025;-69
2021/06/19 10:52:34;;;;;;;14.38;12.88;;;24.60;78.70;;;;;;5051917;28;20024;-69
2021/06/19 10:55:27;;;;;;;14.70;13.25;;;24.50;79.00;;;;;;5051459;28;20025;-69
2021/06/19 10:58:01;;;;;;;14.00;12.70;;;24.50;78.90;;;;;;5051304;28;20396;-69
2021/06/19 11:00:29;;;;;;;13.05;11.77;;;24.30;79.10;;;;;;5046432;28;20523;-69
2021/06/19 11:02:58;;;;;;;14.20;12.80;;;24.30;79.20;;;;;;5051589;28;20054;-69
2021/06/19 11:05:50;;;;;;;14.68;13.32;;;24.40;79.30;;;;;;5042098;28;20476;-69
2021/06/19 11:08:17;;;;;;;13.60;12.32;;;24.50;79.20;;;;;;5041976;28;20036;-69
2021/06/19 11:10:49;;;;;;;11.13;10.02;;;24.50;79.10;;;;;;5037906;28;20021;-69
2021/06/19 11:13:30;;;;;;;13.18;11.70;;;24.50;79.20;;;;;;5033989;28;20041;-69
2021/06/19 11:16:00;;;;;;;14.73;13.23;;;24.70;78.60;;;;;;5046368;28;20052;-69
2021/06/19 11:18:48;;;;;;;12.63;11.43;;;24.70;78.60;;;;;;5042519;28;20041;-69
2021/06/19 11:21:19;;;;;;;13.25;11.82;;;24.90;78.00;;;;;;5033420;28;20124;-69
2021/06/19 11:24:02;;;;;;;14.55;13.15;;;25.10;78.00;;;;;;5034183;28;20040;-69
2021/06/19 11:26:53;;;;;;;15.85;13.48;;;25.30;77.40;;;;;;5032046;28;20018;-69
2021/06/19 11:29:38;;;;;;;13.75;12.18;;;25.50;76.90;;;;;;5033589;28;20481;-69
2021/06/19 11:32:32;;;;;;;12.10;10.85;;;25.50;76.80;;;;;;5033901;28;20437;-69
2021/06/19 11:34:59;;;;;;;9.25;8.35;;;25.70;76.90;;;;;;5052222;28;20486;-70
2021/06/19 11:37:55;;;;;;;10.07;9.18;;;25.90;76.50;;;;;;5052438;28;20421;-69
2021/06/19 11:40:34;;;;;;;12.40;11.20;;;26.20;75.60;;;;;;5050811;28;20029;-69
2021/06/19 11:43:00;;;;;;;10.52;9.63;;;26.50;74.70;;;;;;5045988;28;20026;-69
2021/06/19 11:45:26;;;;;;;8.75;7.95;;;26.70;74.30;;;;;;5033965;28;20393;-69
2021/06/19 11:48:10;;;;;;;8.93;8.13;;;26.70;74.00;;;;;;5039999;28;20431;-69
2021/06/19 11:50:38;;;;;;;7.15;6.45;;;26.80;73.30;;;;;;5037021;28;20481;-70
2021/06/19 11:53:32;;;;;;;11.25;10.25;;;26.60;73.30;;;;;;5040619;28;20061;-70
2021/06/19 11:56:22;;;;;;;9.60;8.73;;;26.60;73.20;;;;;;5050337;28;20029;-69
2021/06/19 11:58:54;;;;;;;9.43;8.57;;;26.60;73.30;;;;;;5031736;28;20032;-70
2021/06/19 12:01:43;;;;;;;8.65;7.78;;;26.60;73.40;;;;;;5033143;28;20021;-71
2021/06/19 12:04:09;;;;;;;8.77;7.95;;;26.60;73.10;;;;;;5037862;28;20034;-70
2021/06/19 12:06:47;;;;;;;9.63;8.68;;;26.50;73.30;;;;;;5043043;28;20024;-70
2021/06/19 12:09:27;;;;;;;10.23;9.32;;;26.50;73.00;;;;;;5055707;28;20017;-70
2021/06/19 12:12:15;;;;;;;9.13;8.23;;;26.40;72.80;;;;;;5054672;28;20102;-70
2021/06/19 12:14:41;;;;;;;12.23;11.07;;;26.40;73.00;;;;;;5055899;28;20021;-70
2021/06/19 12:17:13;;;;;;;10.38;9.48;;;26.30;72.70;;;;;;5052209;28;20033;-70
2021/06/19 12:19:42;;;;;;;8.93;8.13;;;26.30;72.80;;;;;;5036424;28;20139;-70
2021/06/19 12:22:12;;;;;;;10.73;9.73;;;26.30;72.90;;;;;;5047045;28;20041;-70
2021/06/19 12:24:48;;;;;;;9.20;8.38;;;26.20;72.80;;;;;;5053519;28;20098;-70
2021/06/19 12:27:21;;;;;;;8.30;7.60;;;26.20;73.00;;;;;;5040038;28;20025;-70
2021/06/19 12:29:53;;;;;;;9.00;8.13;;;26.20;73.10;;;;;;5037473;28;20032;-70
2021/06/19 12:32:38;;;;;;;10.15;9.25;;;26.30;73.20;;;;;;5037504;28;20022;-70
2021/06/19 12:35:07;;;;;;;8.75;8.05;;;26.50;72.70;;;;;;5036433;28;20017;-70
2021/06/19 12:37:57;;;;;;;11.23;10.13;;;26.80;72.50;;;;;;5036340;28;20021;-70
2021/06/19 12:40:36;;;;;;;12.75;11.65;;;27.10;71.70;;;;;;5066631;28;20038;-70
2021/06/19 12:43:05;;;;;;;12.30;11.30;;;27.40;70.40;;;;;;5033862;28;20036;-70
2021/06/19 12:45:33;;;;;;;11.60;10.57;;;27.60;70.10;;;;;;5039893;28;20025;-70
2021/06/19 12:48:00;;;;;;;13.93;12.75;;;27.60;69.90;;;;;;5044601;28;20021;-70